Pagina principale
METAR-TAF:

METAR-TAF

Aeroporti :

Aeroporto di Costantina-Mohamed Boudiaf

Costantina, Algeria

latitudine: 36-17N, longitudine: 006-37E, altezza: 694 m

Osservazione

Il bollettino è stato emesso 43 minuti fa, alle 12:00 UTC
Vento 5 kt da nord-est
Temperature 30°C
Umidità 27%
Pressione 1023 hPa
Visibilità 10 km o più
Poco nuvoloso ad un'altezza di 3000 ft

METAR: DABC 191200Z 05005KT 9999 FEW030 30/09 Q1023

Ora: 13:43 (12:43 UTC)

Previsione

Il bollettino è stato emesso 1 ora e 43 minuti fa, alle 11:00 UTC
Previsione valida dal 19 alle 12 UTC al 20 alle 12 UTC
Vento 8 kt da est/nord-est
Visibilità 10 km o più
Poco nuvoloso ad un'altezza di 3000 ft

TAF: DABC 191100Z 1912/2012 07008KT 9999 FEW030

Osservazioni e previsioni meteorologiche di più di 4000 aeroporti (messaggi METAR e TAF).

Le stazioni disponibili sono rappresentate dai dischi gialli e rossi sulla carta.

Puntare il mouse per vedere il nome della stazione.

Clicca sopra per visualizzare le osservazioni e previsioni meteorologiche.

Per cambiare la mappa : fare clic sui pulsanti verdi con una croce nera per ingrandire, il pulsante verde con un trattino per diminuire, o sulla freccia verde per le mappe adiacenti.


METAR-TAF: